首页
METAR-TAF:

METAR-TAF

机场 :

Friday Harbor Airport

Friday Harbor, 华盛顿, 美国

纬度: 48-31-13N, 经度: 123-01-31W, 海拔: 33米

当前天气观测

该预报发布于19分钟前的16:53 UTC
风速3节,风向东转东南
温度 14°C
湿度 94%
气压 1022 hPa
能見度: 9.7公里
多云层高于1300英尺
阴天层高于5000英尺
轻雾

METAR: KFHR 081653Z AUTO 12003KT 6SM BR BKN013 OVC050 14/13 A3019 RMK AO2 SLP225 T01440128

时间: 10:12 (17:12 UTC)


TAF: 丢失

超过4000个机场的气象观测和天气预报(METAR&TAF报告)。

可查询的气象台以黄色和红色小点在地图上表示。

将鼠标移到小点上方,可查看气象台名称。

然后点击查看天气观测和预报。

如需切换地图:点击带黑十字的绿色按钮放大地图;点击带横线的绿色按钮缩小地图;或者点击绿色箭头查看邻近地区的地图。


METAR-TAF: